Time;durP1;ratioP1;P1;durP2;ratioP2;P2;SDS_P1;SDS_P2;PMS_P1;PMS_P2;Temp;Humidity;BMP_temperature;BMP_pressure;BME280_temperature;BME280_humidity;BME280_pressure;Samples;Min_cycle;Max_cycle;Signal;HPM_P1;HPM_P2
2023/04/08 00:04:52;;;;;;;53.93;22.97;;;;;;;;;;10617410;27;20065;-75
2023/04/08 00:09:53;;;;;;;58.93;25.70;;;;;;;;;;10614304;27;20047;-76
2023/04/08 00:14:54;;;;;;;62.53;26.73;;;;;;;;;;10618942;27;20023;-76
2023/04/08 00:19:55;;;;;;;76.13;25.00;;;;;;;;;;10613228;27;20055;-75
2023/04/08 00:24:57;;;;;;;61.27;23.63;;;;;;;;;;10610240;27;20066;-75
2023/04/08 00:29:59;;;;;;;50.67;21.87;;;;;;;;;;10621646;27;20125;-76
2023/04/08 00:35:01;;;;;;;46.50;17.87;;;;;;;;;;10630963;27;20042;-76
2023/04/08 00:40:03;;;;;;;38.60;16.67;;;;;;;;;;10631139;27;20042;-76
2023/04/08 00:45:04;;;;;;;38.73;15.17;;;;;;;;;;10631506;27;20066;-77
2023/04/08 00:50:09;;;;;;;41.77;16.87;;;;;;;;;;10631361;27;20031;-76
2023/04/08 00:55:11;;;;;;;35.60;16.37;;;;;;;;;;10627692;27;20485;-76
2023/04/08 01:00:13;;;;;;;39.47;17.67;;;;;;;;;;10640878;27;20030;-76
2023/04/08 01:05:20;;;;;;;38.37;18.00;;;;;;;;;;10622181;27;20051;-78
2023/04/08 01:10:24;;;;;;;39.80;17.13;;;;;;;;;;10639785;27;20027;-76
2023/04/08 01:15:29;;;;;;;43.20;17.33;;;;;;;;;;10616982;27;20052;-76
2023/04/08 01:20:30;;;;;;;51.43;23.37;;;;;;;;;;10635256;27;20114;-76
2023/04/08 01:25:33;;;;;;;51.67;21.73;;;;;;;;;;10637802;27;20445;-77
2023/04/08 01:30:35;;;;;;;45.33;19.93;;;;;;;;;;10609682;27;20039;-76
2023/04/08 01:35:37;;;;;;;49.17;21.60;;;;;;;;;;10636755;27;20736;-77
2023/04/08 01:40:39;;;;;;;50.13;24.03;;;;;;;;;;10614591;27;20034;-75
2023/04/08 01:45:40;;;;;;;56.90;25.47;;;;;;;;;;10632297;27;20035;-75
2023/04/08 01:50:41;;;;;;;59.67;27.50;;;;;;;;;;10618861;27;20039;-76
2023/04/08 01:55:42;;;;;;;66.40;27.40;;;;;;;;;;10623980;27;20035;-76
2023/04/08 02:00:44;;;;;;;65.70;28.87;;;;;;;;;;10628099;27;20863;-76
2023/04/08 02:05:45;;;;;;;59.37;26.30;;;;;;;;;;10610419;28;20122;-76
2023/04/08 02:10:46;;;;;;;62.60;24.80;;;;;;;;;;10611294;27;20046;-76
2023/04/08 02:15:59;;;;;;;53.43;24.40;;;;;;;;;;10629846;27;20382;-77
2023/04/08 02:21:08;;;;;;;54.43;24.10;;;;;;;;;;10599817;27;20043;-75
2023/04/08 02:26:14;;;;;;;62.70;28.10;;;;;;;;;;10619632;27;20053;-77
2023/04/08 02:31:15;;;;;;;;;;;;;;;;;;10622587;27;20086;-75
2023/04/08 02:36:17;;;;;;;51.70;23.23;;;;;;;;;;10610476;28;19915;-75
2023/04/08 02:41:18;;;;;;;51.90;24.03;;;;;;;;;;10609148;28;20023;-76
2023/04/08 02:46:19;;;;;;;50.37;21.80;;;;;;;;;;10610644;27;20054;-77
2023/04/08 02:51:21;;;;;;;52.43;22.80;;;;;;;;;;10623573;27;20019;-76
2023/04/08 02:56:22;;;;;;;49.97;23.00;;;;;;;;;;10630781;27;20019;-75
2023/04/08 03:01:23;;;;;;;51.93;19.53;;;;;;;;;;10626796;27;20054;-75
2023/04/08 03:06:24;;;;;;;44.47;18.67;;;;;;;;;;10621861;27;20399;-76
2023/04/08 03:11:25;;;;;;;42.83;20.03;;;;;;;;;;10623358;27;20027;-77
2023/04/08 03:16:26;;;;;;;41.07;17.73;;;;;;;;;;10626516;27;20382;-76
2023/04/08 03:21:30;;;;;;;41.93;18.50;;;;;;;;;;10621386;27;20034;-76
2023/04/08 03:26:31;;;;;;;49.30;19.20;;;;;;;;;;10624173;27;20668;-75
2023/04/08 03:31:32;;;;;;;50.00;21.07;;;;;;;;;;10634104;27;20026;-75
2023/04/08 03:36:33;;;;;;;50.87;20.03;;;;;;;;;;10635977;27;20136;-77
2023/04/08 03:41:34;;;;;;;48.03;20.03;;;;;;;;;;10635798;27;20027;-76
2023/04/08 03:46:35;;;;;;;46.50;19.60;;;;;;;;;;10630011;27;20092;-77
2023/04/08 03:51:36;;;;;;;49.07;21.33;;;;;;;;;;10628748;27;20165;-77
2023/04/08 03:56:42;;;;;;;41.30;18.17;;;;;;;;;;10616001;27;20039;-76
2023/04/08 04:01:43;;;;;;;;;;;;;;;;;;10647403;27;20042;-77
2023/04/08 04:06:44;;;;;;;46.87;18.07;;;;;;;;;;10630191;27;19914;-77
2023/04/08 04:11:45;;;;;;;44.20;17.00;;;;;;;;;;10626300;27;20027;-76
2023/04/08 04:16:48;;;;;;;40.13;16.67;;;;;;;;;;10627041;27;20031;-76
2023/04/08 04:21:49;;;;;;;41.57;17.43;;;;;;;;;;10636277;27;20035;-76
2023/04/08 04:26:50;;;;;;;45.97;17.47;;;;;;;;;;10624615;27;20030;-75
2023/04/08 04:31:50;;;;;;;44.23;17.83;;;;;;;;;;10617687;27;20096;-76
2023/04/08 04:36:51;;;;;;;37.97;16.77;;;;;;;;;;10628155;27;20374;-77
2023/04/08 04:41:52;;;;;;;34.67;15.57;;;;;;;;;;10628633;27;20665;-76
2023/04/08 04:46:53;;;;;;;42.73;18.43;;;;;;;;;;10628206;27;20658;-77
2023/04/08 04:51:54;;;;;;;44.30;18.43;;;;;;;;;;10626534;27;20027;-76
2023/04/08 04:56:55;;;;;;;43.70;18.90;;;;;;;;;;10622061;27;20084;-77
2023/04/08 05:01:56;;;;;;;42.83;19.33;;;;;;;;;;10638191;27;20090;-78
2023/04/08 05:07:00;;;;;;;42.17;18.47;;;;;;;;;;10611356;27;20703;-76
2023/04/08 05:12:00;;;;;;;33.23;15.87;;;;;;;;;;10611928;27;20035;-77
2023/04/08 05:17:02;;;;;;;34.93;14.10;;;;;;;;;;10612207;27;20039;-78
2023/04/08 05:22:03;;;;;;;37.93;15.20;;;;;;;;;;10593383;27;20141;-76
2023/04/08 05:27:04;;;;;;;33.90;14.40;;;;;;;;;;10615846;27;20035;-77
2023/04/08 05:32:06;;;;;;;32.13;14.80;;;;;;;;;;10623310;27;20035;-77
2023/04/08 05:37:07;;;;;;;30.47;14.73;;;;;;;;;;10610141;27;20552;-76
2023/04/08 05:42:08;;;;;;;35.37;15.70;;;;;;;;;;10601972;27;20045;-77
2023/04/08 05:47:09;;;;;;;32.67;14.63;;;;;;;;;;10584898;27;20039;-77
2023/04/08 05:52:10;;;;;;;36.97;15.80;;;;;;;;;;10575667;28;20114;-78
2023/04/08 05:57:11;;;;;;;28.70;13.87;;;;;;;;;;10606971;27;20033;-77
2023/04/08 06:02:12;;;;;;;28.50;13.07;;;;;;;;;;10591834;27;20055;-77
2023/04/08 06:07:13;;;;;;;28.40;13.23;;;;;;;;;;10619387;27;20529;-80
2023/04/08 06:12:15;;;;;;;32.77;15.53;;;;;;;;;;10595051;27;20033;-77
2023/04/08 06:17:16;;;;;;;32.10;14.70;;;;;;;;;;10612284;27;20493;-75
2023/04/08 06:22:18;;;;;;;49.43;21.57;;;;;;;;;;10605368;28;20042;-77
2023/04/08 06:27:19;;;;;;;38.97;18.17;;;;;;;;;;10614281;27;20079;-78
2023/04/08 06:32:21;;;;;;;31.40;15.97;;;;;;;;;;10606758;27;20034;-76
2023/04/08 06:37:22;;;;;;;32.17;14.97;;;;;;;;;;10623915;27;20374;-78
2023/04/08 06:42:23;;;;;;;27.37;12.53;;;;;;;;;;10618610;27;20031;-77
2023/04/08 06:47:24;;;;;;;28.30;14.13;;;;;;;;;;10619162;27;20031;-76
2023/04/08 06:52:25;;;;;;;25.80;13.57;;;;;;;;;;10620119;27;20391;-76
2023/04/08 06:57:26;;;;;;;32.70;16.10;;;;;;;;;;10573394;22;20060;-75
2023/04/08 07:02:27;;;;;;;31.40;15.23;;;;;;;;;;10558855;28;20051;-75
2023/04/08 07:07:28;;;;;;;27.73;13.53;;;;;;;;;;10556555;28;20177;-76
2023/04/08 07:12:30;;;;;;;26.53;13.73;;;;;;;;;;10553632;28;20036;-76
2023/04/08 07:17:31;;;;;;;34.87;15.87;;;;;;;;;;10562331;28;20034;-77
2023/04/08 07:22:32;;;;;;;30.43;13.70;;;;;;;;;;10556817;28;20042;-77
2023/04/08 07:27:34;;;;;;;23.33;11.47;;;;;;;;;;10551168;28;20032;-77
2023/04/08 07:32:35;;;;;;;24.37;12.47;;;;;;;;;;10539064;28;20048;-77
2023/04/08 07:37:36;;;;;;;31.37;14.20;;;;;;;;;;10573910;28;20402;-76
2023/04/08 07:42:38;;;;;;;21.63;10.20;;;;;;;;;;10529744;28;20040;-77
2023/04/08 07:47:39;;;;;;;23.40;11.23;;;;;;;;;;10546042;28;20028;-78
2023/04/08 07:52:40;;;;;;;23.33;11.67;;;;;;;;;;10553898;28;20023;-76
2023/04/08 07:57:43;;;;;;;25.83;13.03;;;;;;;;;;10493249;28;20069;-76
2023/04/08 08:02:44;;;;;;;31.20;14.63;;;;;;;;;;10483720;28;20041;-78
2023/04/08 08:07:45;;;;;;;38.30;16.90;;;;;;;;;;10488693;28;20036;-77
2023/04/08 08:12:46;;;;;;;104.80;46.23;;;;;;;;;;10486925;28;20111;-77
2023/04/08 08:17:48;;;;;;;35.87;15.73;;;;;;;;;;10486079;28;20033;-77
2023/04/08 08:22:49;;;;;;;43.70;21.03;;;;;;;;;;10487073;28;20024;-77
2023/04/08 08:27:51;;;;;;;43.70;19.77;;;;;;;;;;10488653;28;20540;-79
2023/04/08 08:32:55;;;;;;;30.87;14.80;;;;;;;;;;10487342;28;20078;-78
2023/04/08 08:37:56;;;;;;;26.20;13.40;;;;;;;;;;10488178;28;20047;-77
2023/04/08 08:43:01;;;;;;;26.33;12.60;;;;;;;;;;10476732;28;20044;-77
2023/04/08 08:48:02;;;;;;;20.70;10.70;;;;;;;;;;10484855;28;20036;-79
2023/04/08 08:53:03;;;;;;;27.50;14.37;;;;;;;;;;10484688;28;20078;-78
2023/04/08 08:58:04;;;;;;;20.80;11.13;;;;;;;;;;10485944;28;20462;-77
2023/04/08 09:03:18;;;;;;;27.00;13.75;;;;;;;;;;10527047;28;20089;-79
2023/04/08 09:08:23;;;;;;;26.92;14.98;;;;;;;;;;10505270;28;20032;-78
2023/04/08 09:13:25;;;;;;;15.68;9.50;;;;;;;;;;10506926;28;20032;-77
2023/04/08 09:18:26;;;;;;;19.00;11.18;;;;;;;;;;10510172;28;20036;-78
2023/04/08 09:23:45;;;;;;;19.60;11.02;;;;;;;;;;10512608;28;20425;-78
2023/04/08 09:29:05;;;;;;;17.13;9.80;;;;;;;;;;10488841;28;20035;-77
2023/04/08 09:34:11;;;;;;;15.25;9.35;;;;;;;;;;10482329;28;20025;-77
2023/04/08 09:39:12;;;;;;;20.93;11.03;;;;;;;;;;10505339;28;20024;-77
2023/04/08 09:44:15;;;;;;;16.90;10.48;;;;;;;;;;10484264;28;20863;-75
2023/04/08 09:49:28;;;;;;;17.08;9.77;;;;;;;;;;10486703;28;20127;-78
2023/04/08 09:54:55;;;;;;;16.23;10.15;;;;;;;;;;10480234;28;20056;-76
2023/04/08 10:00:17;;;;;;;27.42;13.43;;;;;;;;;;10517607;28;20047;-77
2023/04/08 10:05:19;;;;;;;26.20;12.63;;;;;;;;;;10533848;28;20382;-76
2023/04/08 10:10:21;;;;;;;23.83;12.18;;;;;;;;;;10530206;28;20058;-78
2023/04/08 10:15:23;;;;;;;61.28;25.65;;;;;;;;;;10520784;28;20031;-77
2023/04/08 10:20:34;;;;;;;33.85;17.67;;;;;;;;;;10528350;28;20024;-77
2023/04/08 10:25:35;;;;;;;22.65;14.02;;;;;;;;;;10526013;28;20114;-79
2023/04/08 10:30:43;;;;;;;25.38;16.17;;;;;;;;;;10522710;28;20028;-79
2023/04/08 10:35:55;;;;;;;18.90;12.38;;;;;;;;;;10533317;28;20647;-77
2023/04/08 10:40:56;;;;;;;21.00;13.00;;;;;;;;;;10532795;28;20024;-77
2023/04/08 10:45:57;;;;;;;18.77;12.75;;;;;;;;;;10519820;28;20043;-79
2023/04/08 10:51:02;;;;;;;20.08;12.98;;;;;;;;;;10518138;28;20024;-78
2023/04/08 10:56:14;;;;;;;24.17;14.60;;;;;;;;;;10524289;28;20052;-76
2023/04/08 11:01:15;;;;;;;26.67;14.63;;;;;;;;;;10512041;28;20074;-76
2023/04/08 11:06:17;;;;;;;23.08;14.68;;;;;;;;;;10512400;28;20143;-75
2023/04/08 11:11:18;;;;;;;28.33;16.92;;;;;;;;;;10521692;28;20033;-77
2023/04/08 11:16:21;;;;;;;24.27;16.48;;;;;;;;;;10512843;28;20040;-77
2023/04/08 11:21:28;;;;;;;55.13;30.10;;;;;;;;;;10498857;28;20161;-77
2023/04/08 11:26:29;;;;;;;26.05;15.75;;;;;;;;;;10491302;28;20511;-76
2023/04/08 11:31:30;;;;;;;23.33;15.88;;;;;;;;;;10514284;28;20031;-78
2023/04/08 11:36:34;;;;;;;27.50;16.33;;;;;;;;;;10530952;28;20032;-77
2023/04/08 11:41:39;;;;;;;27.50;16.80;;;;;;;;;;10523779;28;20085;-78
2023/04/08 11:46:41;;;;;;;35.03;20.63;;;;;;;;;;10530304;28;20127;-77
2023/04/08 11:51:57;;;;;;;26.48;16.35;;;;;;;;;;10531164;28;20045;-75
2023/04/08 11:56:59;;;;;;;26.65;16.48;;;;;;;;;;10528560;28;20080;-79
2023/04/08 12:02:01;;;;;;;27.53;16.83;;;;;;;;;;10515099;28;20450;-77
2023/04/08 12:07:03;;;;;;;24.20;14.33;;;;;;;;;;10525824;28;20036;-78
2023/04/08 12:12:04;;;;;;;23.57;15.30;;;;;;;;;;10529487;28;20028;-76
2023/04/08 12:17:05;;;;;;;22.57;14.53;;;;;;;;;;10523364;28;20040;-79
2023/04/08 12:22:06;;;;;;;22.60;14.83;;;;;;;;;;10528110;28;20452;-77
2023/04/08 12:27:07;;;;;;;23.48;14.63;;;;;;;;;;10527364;28;20043;-76
2023/04/08 12:32:08;;;;;;;24.30;14.17;;;;;;;;;;10518576;28;20036;-76
2023/04/08 12:37:10;;;;;;;24.27;13.73;;;;;;;;;;10527596;28;20111;-76
2023/04/08 12:42:11;;;;;;;22.10;13.00;;;;;;;;;;10527571;28;21009;-78
2023/04/08 12:47:12;;;;;;;23.73;13.53;;;;;;;;;;10503053;28;20043;-78
2023/04/08 12:52:13;;;;;;;21.97;13.80;;;;;;;;;;10527501;28;20032;-77
2023/04/08 12:57:14;;;;;;;25.67;14.83;;;;;;;;;;10519573;28;20133;-78
2023/04/08 13:02:15;;;;;;;64.43;40.13;;;;;;;;;;10524444;28;20039;-76
2023/04/08 13:07:16;;;;;;;78.00;48.33;;;;;;;;;;10527541;28;20020;-78
2023/04/08 13:12:17;;;;;;;34.50;21.13;;;;;;;;;;10520424;28;20115;-77
2023/04/08 13:17:18;;;;;;;65.47;50.27;;;;;;;;;;10521312;28;20471;-76
2023/04/08 13:22:19;;;;;;;52.60;29.27;;;;;;;;;;10545823;28;20395;-78
2023/04/08 13:27:20;;;;;;;53.50;28.93;;;;;;;;;;10528715;28;20135;-76
2023/04/08 13:32:21;;;;;;;52.43;32.90;;;;;;;;;;10518331;28;20032;-77
2023/04/08 13:37:22;;;;;;;59.07;31.60;;;;;;;;;;10514677;28;20039;-76
2023/04/08 13:42:23;;;;;;;79.87;56.00;;;;;;;;;;10509802;28;20045;-77
2023/04/08 13:47:24;;;;;;;122.67;91.70;;;;;;;;;;10523294;28;20571;-78
2023/04/08 13:52:25;;;;;;;43.13;23.73;;;;;;;;;;10527042;28;20035;-78
2023/04/08 13:57:26;;;;;;;171.20;118.90;;;;;;;;;;10491909;28;20064;-77
2023/04/08 14:02:27;;;;;;;220.47;142.93;;;;;;;;;;10509618;28;20035;-77
2023/04/08 14:07:28;;;;;;;376.30;263.87;;;;;;;;;;10492278;28;20480;-78
2023/04/08 14:12:29;;;;;;;39.87;24.73;;;;;;;;;;10496706;28;20117;-76
2023/04/08 14:17:30;;;;;;;425.63;289.17;;;;;;;;;;10467947;28;20039;-77
2023/04/08 14:22:31;;;;;;;58.90;32.47;;;;;;;;;;10469615;28;20033;-77
2023/04/08 14:27:32;;;;;;;40.93;22.83;;;;;;;;;;10477797;28;20408;-79
2023/04/08 14:32:36;;;;;;;41.30;23.50;;;;;;;;;;10478049;28;20123;-76
2023/04/08 14:37:38;;;;;;;71.27;37.53;;;;;;;;;;10471303;28;20067;-76
2023/04/08 14:42:39;;;;;;;47.37;31.07;;;;;;;;;;10478760;28;20702;-76
2023/04/08 14:47:40;;;;;;;48.90;36.60;;;;;;;;;;10463091;28;20029;-77
2023/04/08 14:52:43;;;;;;;37.57;22.93;;;;;;;;;;10483674;28;20029;-78
2023/04/08 14:57:44;;;;;;;36.93;23.87;;;;;;;;;;10475740;28;1452817;-77
2023/04/08 15:02:45;;;;;;;35.37;21.00;;;;;;;;;;10525150;23;20064;-75
2023/04/08 15:07:47;;;;;;;30.50;18.63;;;;;;;;;;10492143;28;20041;-77
2023/04/08 15:12:48;;;;;;;35.70;21.50;;;;;;;;;;10474917;28;20099;-76
2023/04/08 15:17:49;;;;;;;34.37;18.97;;;;;;;;;;10488441;28;20044;-78
2023/04/08 15:22:51;;;;;;;29.57;16.40;;;;;;;;;;10489271;28;20033;-76
2023/04/08 15:27:51;;;;;;;40.90;21.33;;;;;;;;;;10490026;28;20036;-77
2023/04/08 15:32:52;;;;;;;39.80;20.47;;;;;;;;;;10489746;28;20469;-78
2023/04/08 15:37:54;;;;;;;28.93;15.93;;;;;;;;;;10488240;28;20063;-78
2023/04/08 15:42:57;;;;;;;42.03;21.20;;;;;;;;;;10487965;28;20094;-76
2023/04/08 15:47:58;;;;;;;32.67;17.97;;;;;;;;;;10488906;28;20028;-77
2023/04/08 15:53:01;;;;;;;32.07;18.63;;;;;;;;;;10488530;28;20032;-76
2023/04/08 15:58:02;;;;;;;30.83;16.20;;;;;;;;;;10489164;28;20032;-76
2023/04/08 16:03:04;;;;;;;31.77;18.23;;;;;;;;;;10507850;28;20048;-77
2023/04/08 16:08:06;;;;;;;31.33;18.00;;;;;;;;;;10530868;28;20024;-76
2023/04/08 16:13:07;;;;;;;34.37;18.47;;;;;;;;;;10530680;28;20103;-76
2023/04/08 16:18:12;;;;;;;30.23;17.27;;;;;;;;;;10530062;28;20066;-78
2023/04/08 16:23:14;;;;;;;32.87;18.90;;;;;;;;;;10530148;28;20071;-79
2023/04/08 16:28:16;;;;;;;35.13;21.43;;;;;;;;;;10529678;28;20024;-76
2023/04/08 16:33:17;;;;;;;39.83;22.13;;;;;;;;;;10529955;28;20035;-77
2023/04/08 16:38:18;;;;;;;39.53;22.23;;;;;;;;;;10529329;28;20024;-78
2023/04/08 16:43:19;;;;;;;45.83;24.60;;;;;;;;;;10529463;28;20563;-76
2023/04/08 16:48:21;;;;;;;41.93;23.70;;;;;;;;;;10529031;28;20115;-76
2023/04/08 16:53:22;;;;;;;43.80;23.40;;;;;;;;;;10528693;28;20796;-76
2023/04/08 16:58:23;;;;;;;42.10;23.53;;;;;;;;;;10529301;28;20032;-76
2023/04/08 17:03:25;;;;;;;40.73;22.80;;;;;;;;;;10528719;28;20059;-76
2023/04/08 17:08:27;;;;;;;40.67;22.63;;;;;;;;;;10528209;28;20024;-77
2023/04/08 17:13:28;;;;;;;42.80;21.67;;;;;;;;;;10527460;28;20039;-76
2023/04/08 17:18:29;;;;;;;40.87;22.30;;;;;;;;;;10524344;28;20104;-78
2023/04/08 17:23:30;;;;;;;41.93;22.53;;;;;;;;;;10511044;28;20040;-76
2023/04/08 17:28:32;;;;;;;44.63;24.23;;;;;;;;;;10520695;28;20028;-76
2023/04/08 17:33:33;;;;;;;49.40;26.53;;;;;;;;;;10511784;28;20032;-78
2023/04/08 17:38:38;;;;;;;98.47;60.50;;;;;;;;;;10522035;28;20032;-78
2023/04/08 17:43:39;;;;;;;52.40;27.70;;;;;;;;;;10525702;28;20044;-76
2023/04/08 17:48:40;;;;;;;59.13;30.53;;;;;;;;;;10525931;28;20028;-75
2023/04/08 17:53:41;;;;;;;125.37;68.37;;;;;;;;;;10526377;28;20032;-77
2023/04/08 17:58:42;;;;;;;84.57;44.97;;;;;;;;;;10525241;28;20127;-78
2023/04/08 18:03:43;;;;;;;99.80;57.27;;;;;;;;;;10525602;28;20828;-78
2023/04/08 18:08:44;;;;;;;69.43;35.33;;;;;;;;;;10525268;28;20225;-78
2023/04/08 18:13:47;;;;;;;62.17;32.40;;;;;;;;;;10524448;28;20028;-78
2023/04/08 18:18:48;;;;;;;97.13;62.73;;;;;;;;;;10525872;28;20039;-79
2023/04/08 18:23:49;;;;;;;58.17;32.80;;;;;;;;;;10525952;28;20115;-78
2023/04/08 18:28:50;;;;;;;69.27;37.30;;;;;;;;;;10524840;28;20043;-76
2023/04/08 18:33:52;;;;;;;54.77;27.43;;;;;;;;;;10533453;28;20392;-75
2023/04/08 18:38:53;;;;;;;68.03;38.87;;;;;;;;;;10517030;28;20486;-76
2023/04/08 18:43:55;;;;;;;52.20;27.57;;;;;;;;;;10533185;28;20089;-77
2023/04/08 18:48:56;;;;;;;50.70;27.70;;;;;;;;;;10533220;28;20036;-76
2023/04/08 18:53:58;;;;;;;49.00;25.63;;;;;;;;;;10531723;28;20038;-76
2023/04/08 18:58:59;;;;;;;87.83;49.97;;;;;;;;;;10526880;28;20036;-76
2023/04/08 19:04:00;;;;;;;50.83;28.20;;;;;;;;;;10533257;28;20063;-76
2023/04/08 19:09:01;;;;;;;60.33;32.93;;;;;;;;;;10521701;28;20028;-77
2023/04/08 19:14:02;;;;;;;74.80;42.97;;;;;;;;;;10526958;28;20419;-76
2023/04/08 19:19:03;;;;;;;77.83;44.47;;;;;;;;;;10514929;28;20092;-76
2023/04/08 19:24:05;;;;;;;64.33;32.53;;;;;;;;;;10513648;28;20448;-76
2023/04/08 19:29:08;;;;;;;68.70;33.47;;;;;;;;;;10500889;28;20047;-76
2023/04/08 19:34:09;;;;;;;67.43;33.17;;;;;;;;;;10509896;28;20024;-77
2023/04/08 19:39:10;;;;;;;56.60;31.57;;;;;;;;;;10529632;28;20024;-78
2023/04/08 19:44:11;;;;;;;61.20;32.37;;;;;;;;;;10516314;28;20111;-76
2023/04/08 19:49:12;;;;;;;49.53;26.10;;;;;;;;;;10493701;28;20027;-77
2023/04/08 19:54:13;;;;;;;47.30;23.97;;;;;;;;;;10502463;28;20036;-76
2023/04/08 19:59:15;;;;;;;44.57;22.93;;;;;;;;;;10523498;28;20023;-76
2023/04/08 20:04:16;;;;;;;46.47;22.77;;;;;;;;;;10512495;28;20719;-76
2023/04/08 20:09:17;;;;;;;46.43;23.27;;;;;;;;;;10514227;28;20042;-76
2023/04/08 20:14:18;;;;;;;50.30;24.03;;;;;;;;;;10520707;28;20036;-76
2023/04/08 20:19:20;;;;;;;46.10;22.77;;;;;;;;;;10514245;28;20028;-75
2023/04/08 20:24:21;;;;;;;44.93;22.10;;;;;;;;;;10522101;28;20048;-76
2023/04/08 20:29:22;;;;;;;44.40;22.17;;;;;;;;;;10526672;28;20032;-77
2023/04/08 20:34:23;;;;;;;41.20;20.03;;;;;;;;;;10522949;28;20485;-76
2023/04/08 20:39:28;;;;;;;48.77;30.33;;;;;;;;;;10515067;28;20111;-76
2023/04/08 20:44:30;;;;;;;36.03;17.23;;;;;;;;;;10510862;28;20079;-78
2023/04/08 20:49:33;;;;;;;46.27;26.70;;;;;;;;;;10519691;28;20040;-77
2023/04/08 20:54:34;;;;;;;44.93;24.57;;;;;;;;;;10501474;28;20423;-76
2023/04/08 20:59:35;;;;;;;92.93;65.17;;;;;;;;;;10522875;28;20039;-77
2023/04/08 21:04:36;;;;;;;93.77;55.13;;;;;;;;;;10479814;28;20059;-77
2023/04/08 21:09:37;;;;;;;73.70;41.73;;;;;;;;;;10519383;28;20030;-76
2023/04/08 21:14:38;;;;;;;55.87;30.13;;;;;;;;;;10523295;28;20036;-76
2023/04/08 21:19:40;;;;;;;64.57;33.37;;;;;;;;;;10511277;28;20378;-76
2023/04/08 21:24:41;;;;;;;60.80;30.73;;;;;;;;;;10523920;28;20153;-77
2023/04/08 21:29:42;;;;;;;83.33;41.30;;;;;;;;;;10523161;28;20550;-75
2023/04/08 21:34:45;;;;;;;76.27;40.57;;;;;;;;;;10524612;28;20092;-76
2023/04/08 21:39:45;;;;;;;114.17;62.57;;;;;;;;;;10500110;28;20032;-76
2023/04/08 21:44:47;;;;;;;91.33;42.27;;;;;;;;;;10517978;28;20596;-77
2023/04/08 21:49:48;;;;;;;77.57;36.53;;;;;;;;;;10523636;28;20046;-76
2023/04/08 21:54:50;;;;;;;77.70;36.27;;;;;;;;;;10522121;28;20556;-76
2023/04/08 21:59:51;;;;;;;119.83;58.73;;;;;;;;;;10512904;28;20456;-78
2023/04/08 22:04:52;;;;;;;107.60;43.50;;;;;;;;;;10517832;28;20537;-77
2023/04/08 22:09:53;;;;;;;96.53;41.37;;;;;;;;;;10524926;28;20032;-78
2023/04/08 22:14:55;;;;;;;121.43;46.23;;;;;;;;;;10510126;28;20032;-76
2023/04/08 22:19:56;;;;;;;155.23;51.37;;;;;;;;;;10524432;28;20064;-78
2023/04/08 22:24:57;;;;;;;199.43;59.60;;;;;;;;;;10522088;28;20108;-77
2023/04/08 22:29:58;;;;;;;207.80;55.50;;;;;;;;;;10520022;28;20036;-77
2023/04/08 22:34:59;;;;;;;212.93;60.60;;;;;;;;;;10525270;28;20043;-78
2023/04/08 22:40:00;;;;;;;137.40;45.67;;;;;;;;;;10489980;28;20086;-76
2023/04/08 22:45:01;;;;;;;115.03;41.13;;;;;;;;;;10523293;28;20036;-76
2023/04/08 22:50:02;;;;;;;148.53;48.27;;;;;;;;;;10526877;28;20033;-77
2023/04/08 22:55:05;;;;;;;137.37;47.47;;;;;;;;;;10518572;28;20048;-79
2023/04/08 23:00:06;;;;;;;110.97;43.40;;;;;;;;;;10524028;28;20446;-77
2023/04/08 23:05:07;;;;;;;125.47;45.07;;;;;;;;;;10522139;28;20088;-77
2023/04/08 23:10:08;;;;;;;117.07;44.60;;;;;;;;;;10524755;28;20031;-77
2023/04/08 23:15:09;;;;;;;115.77;44.13;;;;;;;;;;10530760;28;20035;-76
2023/04/08 23:20:11;;;;;;;156.17;51.27;;;;;;;;;;10531270;28;20042;-77
2023/04/08 23:25:12;;;;;;;194.70;56.37;;;;;;;;;;10527598;28;20540;-77
2023/04/08 23:30:13;;;;;;;193.33;57.93;;;;;;;;;;10530462;28;20035;-77
2023/04/08 23:35:15;;;;;;;190.67;57.70;;;;;;;;;;10528990;28;20028;-77
2023/04/08 23:40:16;;;;;;;169.57;51.30;;;;;;;;;;10526301;28;20028;-77
2023/04/08 23:45:17;;;;;;;148.30;52.40;;;;;;;;;;10527994;28;20058;-77
2023/04/08 23:50:19;;;;;;;213.17;65.43;;;;;;;;;;10529656;28;20024;-79
2023/04/08 23:55:20;;;;;;;154.67;56.60;;;;;;;;;;10530610;28;20028;-77
